Terminal Aerodrome Forecast
Issued by NWS Kansas City/Pleasant Hill, MO

Home | Current Version | Previous Version | Text Only | Print | Product List | Glossary On
Versions: 1 2 3 4 5 6 7 8 9 10 11 12 13 14 15
000
FTUS43 KEAX 240400 AAA
TAFMCI
TAF AMD
KMCI 240400Z 2404/2424 06008KT 6SM BR OVC008
     FM240500 25008KT P6SM BKN035
     FM240600 31013KT P6SM BKN010
     FM242100 31019KT P6SM OVC020=

USA.gov is the U.S. government's official web portal to all federal, state and local government web resources and services.